sensor_id;sensor_type;location;lat;lon;timestamp;temperature;humidity
66582;SHT31;53438;48.898;2.308;2023-06-05T03:01:42;16.61;63.98
66582;SHT31;53438;48.898;2.308;2023-06-05T03:04:12;16.66;64.08
66582;SHT31;53438;48.898;2.308;2023-06-05T03:06:38;16.71;63.82
66582;SHT31;53438;48.898;2.308;2023-06-05T03:09:03;16.59;64.44
66582;SHT31;53438;48.898;2.308;2023-06-05T03:11:29;16.60;64.46
66582;SHT31;53438;48.898;2.308;2023-06-05T03:13:56;16.59;64.55
66582;SHT31;53438;48.898;2.308;2023-06-05T03:16:21;16.56;64.86
66582;SHT31;53438;48.898;2.308;2023-06-05T03:18:48;16.48;64.93
66582;SHT31;53438;48.898;2.308;2023-06-05T03:21:13;16.50;64.96
66582;SHT31;53438;48.898;2.308;2023-06-05T03:23:39;16.70;64.55
66582;SHT31;53438;48.898;2.308;2023-06-05T03:26:04;16.29;65.63
66582;SHT31;53438;48.898;2.308;2023-06-05T03:28:30;16.42;65.54
66582;SHT31;53438;48.898;2.308;2023-06-05T03:30:59;16.38;65.65
66582;SHT31;53438;48.898;2.308;2023-06-05T03:33:25;16.32;65.85
66582;SHT31;53438;48.898;2.308;2023-06-05T03:35:50;16.18;66.26
66582;SHT31;53438;48.898;2.308;2023-06-05T03:38:17;16.06;66.96
66582;SHT31;53438;48.898;2.308;2023-06-05T03:40:43;16.28;66.27
66582;SHT31;53438;48.898;2.308;2023-06-05T03:43:08;16.25;66.14
66582;SHT31;53438;48.898;2.308;2023-06-05T03:45:36;16.28;66.17
66582;SHT31;53438;48.898;2.308;2023-06-05T03:48:02;16.18;66.54
66582;SHT31;53438;48.898;2.308;2023-06-05T03:50:28;16.06;66.82
66582;SHT31;53438;48.898;2.308;2023-06-05T03:52:58;16.12;66.92
66582;SHT31;53438;48.898;2.308;2023-06-05T03:55:31;16.19;66.48
66582;SHT31;53438;48.898;2.308;2023-06-05T03:58:08;16.01;66.93
66582;SHT31;53438;48.898;2.308;2023-06-05T04:00:33;16.05;67.23
66582;SHT31;53438;48.898;2.308;2023-06-05T04:02:59;15.97;67.38
66582;SHT31;53438;48.898;2.308;2023-06-05T04:05:24;16.06;67.25
66582;SHT31;53438;48.898;2.308;2023-06-05T04:07:49;15.99;67.68
66582;SHT31;53438;48.898;2.308;2023-06-05T04:10:15;15.88;67.59
66582;SHT31;53438;48.898;2.308;2023-06-05T04:12:41;15.91;67.90
66582;SHT31;53438;48.898;2.308;2023-06-05T04:15:07;15.71;68.61
66582;SHT31;53438;48.898;2.308;2023-06-05T04:17:34;15.88;68.17
66582;SHT31;53438;48.898;2.308;2023-06-05T04:19:59;15.71;68.58
66582;SHT31;53438;48.898;2.308;2023-06-05T04:22:25;15.78;68.40
66582;SHT31;53438;48.898;2.308;2023-06-05T04:24:50;15.91;68.22
66582;SHT31;53438;48.898;2.308;2023-06-05T04:27:16;15.55;69.32
66582;SHT31;53438;48.898;2.308;2023-06-05T04:29:42;15.55;69.32
66582;SHT31;53438;48.898;2.308;2023-06-05T04:32:09;15.55;69.50
66582;SHT31;53438;48.898;2.308;2023-06-05T04:34:34;15.75;68.98
66582;SHT31;53438;48.898;2.308;2023-06-05T04:37:00;15.78;68.84
66582;SHT31;53438;48.898;2.308;2023-06-05T04:39:26;15.64;69.56
66582;SHT31;53438;48.898;2.308;2023-06-05T04:41:52;15.64;69.46
66582;SHT31;53438;48.898;2.308;2023-06-05T04:44:17;15.72;69.25
66582;SHT31;53438;48.898;2.308;2023-06-05T04:46:45;15.75;69.25
66582;SHT31;53438;48.898;2.308;2023-06-05T04:49:14;15.74;69.39
66582;SHT31;53438;48.898;2.308;2023-06-05T04:51:40;15.77;69.14
66582;SHT31;53438;48.898;2.308;2023-06-05T04:54:06;15.71;69.74
66582;SHT31;53438;48.898;2.308;2023-06-05T04:56:35;15.78;69.36
66582;SHT31;53438;48.898;2.308;2023-06-05T04:59:01;15.72;69.70
66582;SHT31;53438;48.898;2.308;2023-06-05T05:01:28;15.62;69.81
66582;SHT31;53438;48.898;2.308;2023-06-05T05:03:53;15.64;69.83
66582;SHT31;53438;48.898;2.308;2023-06-05T05:06:20;15.74;69.66
66582;SHT31;53438;48.898;2.308;2023-06-05T05:08:46;15.78;69.46
66582;SHT31;53438;48.898;2.308;2023-06-05T05:11:14;15.98;69.01
66582;SHT31;53438;48.898;2.308;2023-06-05T05:13:39;15.84;69.32
66582;SHT31;53438;48.898;2.308;2023-06-05T05:16:05;15.84;69.48
66582;SHT31;53438;48.898;2.308;2023-06-05T05:18:30;15.68;69.73
66582;SHT31;53438;48.898;2.308;2023-06-05T05:20:56;15.55;70.55
66582;SHT31;53438;48.898;2.308;2023-06-05T05:23:21;15.95;69.22
66582;SHT31;53438;48.898;2.308;2023-06-05T05:25:47;16.09;68.99
66582;SHT31;53438;48.898;2.308;2023-06-05T05:28:13;15.78;69.85
66582;SHT31;53438;48.898;2.308;2023-06-05T05:30:38;15.75;70.26
66582;SHT31;53438;48.898;2.308;2023-06-05T05:33:04;15.95;69.34
66582;SHT31;53438;48.898;2.308;2023-06-05T05:35:30;15.97;69.48
66582;SHT31;53438;48.898;2.308;2023-06-05T05:37:56;16.08;69.18
66582;SHT31;53438;48.898;2.308;2023-06-05T05:40:21;16.26;68.74
66582;SHT31;53438;48.898;2.308;2023-06-05T05:42:46;15.91;69.81
66582;SHT31;53438;48.898;2.308;2023-06-05T05:45:11;15.90;69.86
66582;SHT31;53438;48.898;2.308;2023-06-05T05:47:37;15.74;70.54
66582;SHT31;53438;48.898;2.308;2023-06-05T05:50:02;16.23;69.05
66582;SHT31;53438;48.898;2.308;2023-06-05T05:52:28;16.46;67.85
66582;SHT31;53438;48.898;2.308;2023-06-05T05:54:53;16.55;67.71
66582;SHT31;53438;48.898;2.308;2023-06-05T05:57:18;16.69;67.47
66582;SHT31;53438;48.898;2.308;2023-06-05T05:59:44;16.53;67.69
66582;SHT31;53438;48.898;2.308;2023-06-05T06:02:10;16.85;66.62
66582;SHT31;53438;48.898;2.308;2023-06-05T06:04:37;16.85;66.51
66582;SHT31;53438;48.898;2.308;2023-06-05T06:07:02;16.67;67.17
66582;SHT31;53438;48.898;2.308;2023-06-05T06:09:29;16.87;66.52
66582;SHT31;53438;48.898;2.308;2023-06-05T06:11:54;16.97;66.45
66582;SHT31;53438;48.898;2.308;2023-06-05T06:14:21;17.14;66.12
66582;SHT31;53438;48.898;2.308;2023-06-05T06:16:47;17.24;65.49
66582;SHT31;53438;48.898;2.308;2023-06-05T06:19:13;17.25;65.50
66582;SHT31;53438;48.898;2.308;2023-06-05T06:21:40;17.11;65.98
66582;SHT31;53438;48.898;2.308;2023-06-05T06:24:05;17.14;65.66
66582;SHT31;53438;48.898;2.308;2023-06-05T06:26:31;17.22;65.66
66582;SHT31;53438;48.898;2.308;2023-06-05T06:28:57;17.36;64.57
66582;SHT31;53438;48.898;2.308;2023-06-05T06:31:24;17.00;66.28
66582;SHT31;53438;48.898;2.308;2023-06-05T06:33:49;17.03;66.17
66582;SHT31;53438;48.898;2.308;2023-06-05T06:36:16;17.00;66.22
66582;SHT31;53438;48.898;2.308;2023-06-05T06:38:43;17.52;64.54
66582;SHT31;53438;48.898;2.308;2023-06-05T06:41:08;17.80;63.96
66582;SHT31;53438;48.898;2.308;2023-06-05T06:43:33;17.66;64.06
66582;SHT31;53438;48.898;2.308;2023-06-05T06:45:59;17.46;64.69
66582;SHT31;53438;48.898;2.308;2023-06-05T06:48:25;17.86;63.92
66582;SHT31;53438;48.898;2.308;2023-06-05T06:50:50;17.94;63.01
66582;SHT31;53438;48.898;2.308;2023-06-05T06:53:18;18.01;62.71
66582;SHT31;53438;48.898;2.308;2023-06-05T06:55:44;17.97;62.75
66582;SHT31;53438;48.898;2.308;2023-06-05T06:58:09;17.86;62.75
66582;SHT31;53438;48.898;2.308;2023-06-05T07:00:35;17.76;63.69
66582;SHT31;53438;48.898;2.308;2023-06-05T07:03:01;17.53;64.10
66582;SHT31;53438;48.898;2.308;2023-06-05T07:05:26;17.90;63.30
66582;SHT31;53438;48.898;2.308;2023-06-05T07:07:51;18.06;62.99
66582;SHT31;53438;48.898;2.308;2023-06-05T07:10:17;18.23;62.27
66582;SHT31;53438;48.898;2.308;2023-06-05T07:12:42;18.38;61.43
66582;SHT31;53438;48.898;2.308;2023-06-05T07:15:07;18.57;60.91
66582;SHT31;53438;48.898;2.308;2023-06-05T07:17:33;18.78;60.57
66582;SHT31;53438;48.898;2.308;2023-06-05T07:19:58;18.79;60.24
66582;SHT31;53438;48.898;2.308;2023-06-05T07:22:25;19.19;59.23
66582;SHT31;53438;48.898;2.308;2023-06-05T07:24:52;19.17;59.01
66582;SHT31;53438;48.898;2.308;2023-06-05T07:27:18;19.60;57.54
66582;SHT31;53438;48.898;2.308;2023-06-05T07:29:45;19.70;56.44
66582;SHT31;53438;48.898;2.308;2023-06-05T07:32:10;19.51;56.80
66582;SHT31;53438;48.898;2.308;2023-06-05T07:34:35;19.64;56.21
66582;SHT31;53438;48.898;2.308;2023-06-05T07:37:01;19.84;55.76
66582;SHT31;53438;48.898;2.308;2023-06-05T07:39:27;19.79;56.09
66582;SHT31;53438;48.898;2.308;2023-06-05T07:41:53;19.88;55.78
66582;SHT31;53438;48.898;2.308;2023-06-05T07:44:21;19.78;56.54
66582;SHT31;53438;48.898;2.308;2023-06-05T07:46:48;20.02;55.57
66582;SHT31;53438;48.898;2.308;2023-06-05T07:49:14;20.21;55.08
66582;SHT31;53438;48.898;2.308;2023-06-05T07:51:40;20.12;54.84
66582;SHT31;53438;48.898;2.308;2023-06-05T07:54:07;19.85;55.11
66582;SHT31;53438;48.898;2.308;2023-06-05T07:56:35;19.91;55.90
66582;SHT31;53438;48.898;2.308;2023-06-05T07:59:02;20.11;54.92
66582;SHT31;53438;48.898;2.308;2023-06-05T08:01:35;20.36;53.11
66582;SHT31;53438;48.898;2.308;2023-06-05T08:04:04;20.14;54.36
66582;SHT31;53438;48.898;2.308;2023-06-05T08:06:30;20.42;53.90
66582;SHT31;53438;48.898;2.308;2023-06-05T08:09:01;20.49;54.28
66582;SHT31;53438;48.898;2.308;2023-06-05T08:11:27;20.66;54.05
66582;SHT31;53438;48.898;2.308;2023-06-05T08:13:54;20.77;53.66
66582;SHT31;53438;48.898;2.308;2023-06-05T08:16:19;20.73;53.42
66582;SHT31;53438;48.898;2.308;2023-06-05T08:18:45;20.70;53.64
66582;SHT31;53438;48.898;2.308;2023-06-05T08:21:11;20.84;53.36
66582;SHT31;53438;48.898;2.308;2023-06-05T08:23:36;20.90;53.22
66582;SHT31;53438;48.898;2.308;2023-06-05T08:26:02;21.10;52.80
66582;SHT31;53438;48.898;2.308;2023-06-05T08:28:35;20.84;53.21
66582;SHT31;53438;48.898;2.308;2023-06-05T08:31:01;21.01;53.29
66582;SHT31;53438;48.898;2.308;2023-06-05T08:33:26;21.25;52.48
66582;SHT31;53438;48.898;2.308;2023-06-05T08:35:51;21.37;52.27
66582;SHT31;53438;48.898;2.308;2023-06-05T08:38:17;21.46;51.13
66582;SHT31;53438;48.898;2.308;2023-06-05T08:40:43;21.63;50.56
66582;SHT31;53438;48.898;2.308;2023-06-05T08:43:10;21.69;50.57
66582;SHT31;53438;48.898;2.308;2023-06-05T08:45:37;21.41;51.66
66582;SHT31;53438;48.898;2.308;2023-06-05T08:48:02;20.88;53.12
66582;SHT31;53438;48.898;2.308;2023-06-05T08:50:29;21.38;52.31
66582;SHT31;53438;48.898;2.308;2023-06-05T08:52:58;21.67;51.29
66582;SHT31;53438;48.898;2.308;2023-06-05T08:55:24;20.73;52.60
66582;SHT31;53438;48.898;2.308;2023-06-05T08:57:51;20.56;53.61
66582;SHT31;53438;48.898;2.308;2023-06-05T09:00:17;20.86;52.90
66582;SHT31;53438;48.898;2.308;2023-06-05T09:02:42;20.72;53.39
66582;SHT31;53438;48.898;2.308;2023-06-05T09:05:14;21.28;52.38
66582;SHT31;53438;48.898;2.308;2023-06-05T09:07:40;21.30;51.73
66582;SHT31;53438;48.898;2.308;2023-06-05T09:10:07;21.81;50.79
66582;SHT31;53438;48.898;2.308;2023-06-05T09:12:52;22.12;50.52
66582;SHT31;53438;48.898;2.308;2023-06-05T09:15:22;22.00;51.19
66582;SHT31;53438;48.898;2.308;2023-06-05T09:17:48;22.34;50.69
66582;SHT31;53438;48.898;2.308;2023-06-05T09:20:23;22.45;49.79
66582;SHT31;53438;48.898;2.308;2023-06-05T09:22:49;22.53;49.60
66582;SHT31;53438;48.898;2.308;2023-06-05T09:25:14;22.34;50.52
66582;SHT31;53438;48.898;2.308;2023-06-05T09:27:40;22.55;50.26
66582;SHT31;53438;48.898;2.308;2023-06-05T09:30:06;22.06;51.80
66582;SHT31;53438;48.898;2.308;2023-06-05T09:32:32;22.45;49.79
66582;SHT31;53438;48.898;2.308;2023-06-05T09:34:57;22.44;49.76
66582;SHT31;53438;48.898;2.308;2023-06-05T09:37:33;22.71;48.92
66582;SHT31;53438;48.898;2.308;2023-06-05T09:40:00;22.63;48.84
66582;SHT31;53438;48.898;2.308;2023-06-05T09:42:33;22.71;48.86
66582;SHT31;53438;48.898;2.308;2023-06-05T09:45:00;22.90;48.99
66582;SHT31;53438;48.898;2.308;2023-06-05T09:47:25;23.03;49.02
66582;SHT31;53438;48.898;2.308;2023-06-05T09:49:50;22.33;48.82
66582;SHT31;53438;48.898;2.308;2023-06-05T09:52:16;22.58;49.13
66582;SHT31;53438;48.898;2.308;2023-06-05T09:54:44;22.98;47.80
66582;SHT31;53438;48.898;2.308;2023-06-05T09:57:12;23.12;46.94
66582;SHT31;53438;48.898;2.308;2023-06-05T09:59:50;23.09;45.41
66582;SHT31;53438;48.898;2.308;2023-06-05T10:02:19;23.32;45.01
66582;SHT31;53438;48.898;2.308;2023-06-05T10:04:48;23.39;45.40
66582;SHT31;53438;48.898;2.308;2023-06-05T10:07:13;23.59;45.12
66582;SHT31;53438;48.898;2.308;2023-06-05T10:09:40;23.63;43.87
66582;SHT31;53438;48.898;2.308;2023-06-05T10:12:07;23.50;43.82
66582;SHT31;53438;48.898;2.308;2023-06-05T10:14:34;23.56;43.84
66582;SHT31;53438;48.898;2.308;2023-06-05T10:17:01;23.60;43.96
66582;SHT31;53438;48.898;2.308;2023-06-05T10:19:27;23.59;43.32
66582;SHT31;53438;48.898;2.308;2023-06-05T10:21:53;23.74;43.23
66582;SHT31;53438;48.898;2.308;2023-06-05T10:24:22;23.80;43.00
66582;SHT31;53438;48.898;2.308;2023-06-05T10:29:56;24.08;42.44
66582;SHT31;53438;48.898;2.308;2023-06-05T10:35:07;24.18;41.85
66582;SHT31;53438;48.898;2.308;2023-06-05T10:37:41;24.18;42.40
66582;SHT31;53438;48.898;2.308;2023-06-05T10:40:09;24.17;43.27
66582;SHT31;53438;48.898;2.308;2023-06-05T10:42:36;24.12;42.86
66582;SHT31;53438;48.898;2.308;2023-06-05T10:45:01;24.26;42.53
66582;SHT31;53438;48.898;2.308;2023-06-05T10:50:19;24.28;41.69
66582;SHT31;53438;48.898;2.308;2023-06-05T10:52:48;24.47;42.28
66582;SHT31;53438;48.898;2.308;2023-06-05T10:55:15;24.43;42.50
66582;SHT31;53438;48.898;2.308;2023-06-05T10:58:10;24.41;42.24
66582;SHT31;53438;48.898;2.308;2023-06-05T11:03:56;24.21;42.99
66582;SHT31;53438;48.898;2.308;2023-06-05T11:06:22;24.43;41.91
66582;SHT31;53438;48.898;2.308;2023-06-05T11:09:13;24.51;40.83
66582;SHT31;53438;48.898;2.308;2023-06-05T11:12:05;24.45;41.39
66582;SHT31;53438;48.898;2.308;2023-06-05T11:14:49;24.51;40.72
66582;SHT31;53438;48.898;2.308;2023-06-05T11:17:32;24.73;40.29
66582;SHT31;53438;48.898;2.308;2023-06-05T11:20:01;24.84;40.17
66582;SHT31;53438;48.898;2.308;2023-06-05T11:22:28;24.96;40.02
66582;SHT31;53438;48.898;2.308;2023-06-05T11:30:17;25.19;37.73
66582;SHT31;53438;48.898;2.308;2023-06-05T11:32:44;25.30;37.12
66582;SHT31;53438;48.898;2.308;2023-06-05T11:35:10;25.24;37.57
66582;SHT31;53438;48.898;2.308;2023-06-05T11:37:36;25.26;37.66
66582;SHT31;53438;48.898;2.308;2023-06-05T11:40:05;25.38;37.91
66582;SHT31;53438;48.898;2.308;2023-06-05T11:42:34;25.38;37.38
66582;SHT31;53438;48.898;2.308;2023-06-05T11:45:00;25.33;36.77
66582;SHT31;53438;48.898;2.308;2023-06-05T11:47:26;25.40;36.56
66582;SHT31;53438;48.898;2.308;2023-06-05T11:49:53;25.51;36.72
66582;SHT31;53438;48.898;2.308;2023-06-05T11:52:21;25.58;35.48
66582;SHT31;53438;48.898;2.308;2023-06-05T11:54:47;25.40;35.46
66582;SHT31;53438;48.898;2.308;2023-06-05T11:57:44;25.37;35.35
66582;SHT31;53438;48.898;2.308;2023-06-05T12:00:10;25.65;34.33
66582;SHT31;53438;48.898;2.308;2023-06-05T12:02:43;25.48;34.18
66582;SHT31;53438;48.898;2.308;2023-06-05T12:05:09;25.41;34.97
66582;SHT31;53438;48.898;2.308;2023-06-05T12:07:37;25.60;36.21
66582;SHT31;53438;48.898;2.308;2023-06-05T12:10:05;25.79;36.11
66582;SHT31;53438;48.898;2.308;2023-06-05T12:12:31;25.86;36.16
66582;SHT31;53438;48.898;2.308;2023-06-05T12:15:13;25.86;35.78
66582;SHT31;53438;48.898;2.308;2023-06-05T12:17:38;25.54;36.59
66582;SHT31;53438;48.898;2.308;2023-06-05T12:20:04;25.75;35.45
66582;SHT31;53438;48.898;2.308;2023-06-05T12:22:33;25.64;35.61
66582;SHT31;53438;48.898;2.308;2023-06-05T12:25:17;25.78;35.64
66582;SHT31;53438;48.898;2.308;2023-06-05T12:27:43;25.81;35.97
66582;SHT31;53438;48.898;2.308;2023-06-05T12:30:11;25.86;36.06
66582;SHT31;53438;48.898;2.308;2023-06-05T12:32:36;25.68;30.86
66582;SHT31;53438;48.898;2.308;2023-06-05T12:35:04;25.75;31.53
66582;SHT31;53438;48.898;2.308;2023-06-05T12:37:31;25.72;32.16
66582;SHT31;53438;48.898;2.308;2023-06-05T12:40:01;25.69;32.63
66582;SHT31;53438;48.898;2.308;2023-06-05T12:42:33;25.71;33.43
66582;SHT31;53438;48.898;2.308;2023-06-05T12:45:00;25.67;33.96
66582;SHT31;53438;48.898;2.308;2023-06-05T12:47:26;25.74;34.07
66582;SHT31;53438;48.898;2.308;2023-06-05T12:49:51;25.90;33.64
66582;SHT31;53438;48.898;2.308;2023-06-05T12:52:16;25.84;32.84
66582;SHT31;53438;48.898;2.308;2023-06-05T12:54:42;25.86;33.22
66582;SHT31;53438;48.898;2.308;2023-06-05T12:57:07;25.85;33.45
66582;SHT31;53438;48.898;2.308;2023-06-05T12:59:33;25.82;33.15
66582;SHT31;53438;48.898;2.308;2023-06-05T13:01:59;25.60;33.91
66582;SHT31;53438;48.898;2.308;2023-06-05T13:04:24;25.57;33.98
66582;SHT31;53438;48.898;2.308;2023-06-05T13:06:49;25.57;34.06
66582;SHT31;53438;48.898;2.308;2023-06-05T13:09:16;25.71;33.66
66582;SHT31;53438;48.898;2.308;2023-06-05T13:11:41;25.64;33.07
66582;SHT31;53438;48.898;2.308;2023-06-05T13:14:07;25.64;33.39
66582;SHT31;53438;48.898;2.308;2023-06-05T13:16:32;25.65;33.35
66582;SHT31;53438;48.898;2.308;2023-06-05T13:18:58;25.77;33.50
66582;SHT31;53438;48.898;2.308;2023-06-05T13:21:23;25.69;34.01
66582;SHT31;53438;48.898;2.308;2023-06-05T13:23:49;25.74;34.35
66582;SHT31;53438;48.898;2.308;2023-06-05T13:26:15;25.81;33.30
66582;SHT31;53438;48.898;2.308;2023-06-05T13:28:40;25.72;33.33
66582;SHT31;53438;48.898;2.308;2023-06-05T13:31:05;25.75;33.72
66582;SHT31;53438;48.898;2.308;2023-06-05T13:33:33;25.60;33.86
66582;SHT31;53438;48.898;2.308;2023-06-05T13:35:59;25.79;33.79
66582;SHT31;53438;48.898;2.308;2023-06-05T13:38:24;25.72;33.74
66582;SHT31;53438;48.898;2.308;2023-06-05T13:40:49;25.81;34.07
66582;SHT31;53438;48.898;2.308;2023-06-05T13:43:17;25.62;33.93
66582;SHT31;53438;48.898;2.308;2023-06-05T13:45:43;25.74;33.50
66582;SHT31;53438;48.898;2.308;2023-06-05T13:48:08;25.85;33.21
66582;SHT31;53438;48.898;2.308;2023-06-05T13:50:33;25.93;31.46
66582;SHT31;53438;48.898;2.308;2023-06-05T13:52:59;25.93;31.48
66582;SHT31;53438;48.898;2.308;2023-06-05T13:55:24;25.89;30.88
66582;SHT31;53438;48.898;2.308;2023-06-05T13:57:50;25.90;31.53
66582;SHT31;53438;48.898;2.308;2023-06-05T14:00:16;26.03;32.68
66582;SHT31;53438;48.898;2.308;2023-06-05T14:02:41;26.00;32.97
66582;SHT31;53438;48.898;2.308;2023-06-05T14:05:07;26.16;32.87
66582;SHT31;53438;48.898;2.308;2023-06-05T14:07:38;26.18;31.81
66582;SHT31;53438;48.898;2.308;2023-06-05T14:10:04;26.28;31.94
66582;SHT31;53438;48.898;2.308;2023-06-05T14:12:29;26.39;31.19
66582;SHT31;53438;48.898;2.308;2023-06-05T14:14:55;26.50;30.90
66582;SHT31;53438;48.898;2.308;2023-06-05T14:17:20;26.57;30.92
66582;SHT31;53438;48.898;2.308;2023-06-05T14:19:46;26.56;31.13
66582;SHT31;53438;48.898;2.308;2023-06-05T14:22:11;26.67;30.69
66582;SHT31;53438;48.898;2.308;2023-06-05T14:24:37;26.70;30.38
66582;SHT31;53438;48.898;2.308;2023-06-05T14:27:02;26.74;30.57
66582;SHT31;53438;48.898;2.308;2023-06-05T14:29:27;26.83;29.43
66582;SHT31;53438;48.898;2.308;2023-06-05T14:31:53;26.88;29.14
66582;SHT31;53438;48.898;2.308;2023-06-05T14:34:18;26.83;29.62
66582;SHT31;53438;48.898;2.308;2023-06-05T14:36:45;26.99;30.64
66582;SHT31;53438;48.898;2.308;2023-06-05T14:39:16;26.99;31.32
66582;SHT31;53438;48.898;2.308;2023-06-05T14:41:42;26.95;31.50
66582;SHT31;53438;48.898;2.308;2023-06-05T14:44:07;27.02;31.59
66582;SHT31;53438;48.898;2.308;2023-06-05T14:46:33;27.15;31.53
66582;SHT31;53438;48.898;2.308;2023-06-05T14:48:58;27.22;30.77
66582;SHT31;53438;48.898;2.308;2023-06-05T14:51:23;27.09;30.83
66582;SHT31;53438;48.898;2.308;2023-06-05T14:53:49;27.16;31.04
66582;SHT31;53438;48.898;2.308;2023-06-05T14:56:14;27.42;29.96
66582;SHT31;53438;48.898;2.308;2023-06-05T14:58:39;27.52;29.50
66582;SHT31;53438;48.898;2.308;2023-06-05T15:01:05;27.02;30.74
66582;SHT31;53438;48.898;2.308;2023-06-05T15:03:30;27.22;30.64
66582;SHT31;53438;48.898;2.308;2023-06-05T15:05:55;27.42;31.07
66582;SHT31;53438;48.898;2.308;2023-06-05T15:08:21;27.41;30.84
66582;SHT31;53438;48.898;2.308;2023-06-05T15:10:50;27.26;30.61
66582;SHT31;53438;48.898;2.308;2023-06-05T15:13:15;27.38;29.84
66582;SHT31;53438;48.898;2.308;2023-06-05T15:15:41;27.55;30.07
66582;SHT31;53438;48.898;2.308;2023-06-05T15:18:06;27.71;30.18
66582;SHT31;53438;48.898;2.308;2023-06-05T15:20:33;27.92;29.75
66582;SHT31;53438;48.898;2.308;2023-06-05T15:22:58;28.07;29.69
66582;SHT31;53438;48.898;2.308;2023-06-05T15:25:23;27.87;30.06
66582;SHT31;53438;48.898;2.308;2023-06-05T15:27:50;27.69;30.28
66582;SHT31;53438;48.898;2.308;2023-06-05T15:30:16;27.89;30.18
66582;SHT31;53438;48.898;2.308;2023-06-05T15:32:41;28.04;30.15
66582;SHT31;53438;48.898;2.308;2023-06-05T15:35:09;28.21;30.19
66582;SHT31;53438;48.898;2.308;2023-06-05T15:37:35;28.38;30.00
66582;SHT31;53438;48.898;2.308;2023-06-05T15:40:00;28.28;30.21
66582;SHT31;53438;48.898;2.308;2023-06-05T15:42:33;28.13;30.30
66582;SHT31;53438;48.898;2.308;2023-06-05T15:45:09;27.55;30.62
66582;SHT31;53438;48.898;2.308;2023-06-05T15:47:36;27.85;30.71
66582;SHT31;53438;48.898;2.308;2023-06-05T15:50:02;27.87;30.54
66582;SHT31;53438;48.898;2.308;2023-06-05T15:52:35;27.77;30.72
66582;SHT31;53438;48.898;2.308;2023-06-05T15:55:01;28.07;30.86
66582;SHT31;53438;48.898;2.308;2023-06-05T15:57:27;28.22;30.67
66582;SHT31;53438;48.898;2.308;2023-06-05T15:59:52;28.44;30.70
66582;SHT31;53438;48.898;2.308;2023-06-05T16:02:21;27.93;31.50
66582;SHT31;53438;48.898;2.308;2023-06-05T16:04:47;27.31;32.27
66582;SHT31;53438;48.898;2.308;2023-06-05T16:07:13;27.41;32.40
66582;SHT31;53438;48.898;2.308;2023-06-05T16:09:39;26.87;32.85
66582;SHT31;53438;48.898;2.308;2023-06-05T16:12:05;26.74;33.27
66582;SHT31;53438;48.898;2.308;2023-06-05T16:14:30;26.94;33.42
66582;SHT31;53438;48.898;2.308;2023-06-05T16:16:55;26.95;33.57
66582;SHT31;53438;48.898;2.308;2023-06-05T16:19:21;26.90;33.68
66582;SHT31;53438;48.898;2.308;2023-06-05T16:21:47;26.88;33.95
66582;SHT31;53438;48.898;2.308;2023-06-05T16:24:12;26.87;34.36
66582;SHT31;53438;48.898;2.308;2023-06-05T16:26:39;26.83;34.44
66582;SHT31;53438;48.898;2.308;2023-06-05T16:29:04;26.63;34.79
66582;SHT31;53438;48.898;2.308;2023-06-05T16:31:30;26.53;34.95
66582;SHT31;53438;48.898;2.308;2023-06-05T16:33:56;26.58;35.07
66582;SHT31;53438;48.898;2.308;2023-06-05T16:36:21;26.57;35.04
66582;SHT31;53438;48.898;2.308;2023-06-05T16:38:47;26.54;35.13
66582;SHT31;53438;48.898;2.308;2023-06-05T16:41:12;26.37;35.30
66582;SHT31;53438;48.898;2.308;2023-06-05T16:43:38;26.44;35.38
66582;SHT31;53438;48.898;2.308;2023-06-05T16:46:04;26.46;35.52
66582;SHT31;53438;48.898;2.308;2023-06-05T16:48:29;26.28;35.92
66582;SHT31;53438;48.898;2.308;2023-06-05T16:50:55;26.26;35.97
66582;SHT31;53438;48.898;2.308;2023-06-05T16:53:21;26.28;36.19
66582;SHT31;53438;48.898;2.308;2023-06-05T16:55:46;26.08;36.00
66582;SHT31;53438;48.898;2.308;2023-06-05T16:58:11;26.03;36.22
66582;SHT31;53438;48.898;2.308;2023-06-05T17:00:37;25.92;36.41
66582;SHT31;53438;48.898;2.308;2023-06-05T17:03:03;25.98;36.43
66582;SHT31;53438;48.898;2.308;2023-06-05T17:05:28;26.03;36.50
66582;SHT31;53438;48.898;2.308;2023-06-05T17:07:54;26.09;36.38
66582;SHT31;53438;48.898;2.308;2023-06-05T17:10:19;26.10;36.48
66582;SHT31;53438;48.898;2.308;2023-06-05T17:12:44;26.06;36.43
66582;SHT31;53438;48.898;2.308;2023-06-05T17:15:13;26.02;36.55
66582;SHT31;53438;48.898;2.308;2023-06-05T17:17:39;26.08;36.50
66582;SHT31;53438;48.898;2.308;2023-06-05T17:20:08;26.08;36.54
66582;SHT31;53438;48.898;2.308;2023-06-05T17:22:37;25.84;36.81
66582;SHT31;53438;48.898;2.308;2023-06-05T17:25:03;25.90;36.70
66582;SHT31;53438;48.898;2.308;2023-06-05T17:27:28;25.79;37.04
66582;SHT31;53438;48.898;2.308;2023-06-05T17:29:53;25.89;36.86
66582;SHT31;53438;48.898;2.308;2023-06-05T17:32:19;25.88;37.05
66582;SHT31;53438;48.898;2.308;2023-06-05T17:34:44;25.92;36.90
66582;SHT31;53438;48.898;2.308;2023-06-05T17:37:11;25.89;36.79
66582;SHT31;53438;48.898;2.308;2023-06-05T17:39:36;25.68;36.94
66582;SHT31;53438;48.898;2.308;2023-06-05T17:42:02;25.68;37.08
66582;SHT31;53438;48.898;2.308;2023-06-05T17:44:28;25.50;37.51
66582;SHT31;53438;48.898;2.308;2023-06-05T17:46:54;25.58;37.53
66582;SHT31;53438;48.898;2.308;2023-06-05T17:49:19;25.55;37.49
66582;SHT31;53438;48.898;2.308;2023-06-05T17:51:45;25.44;37.39
66582;SHT31;53438;48.898;2.308;2023-06-05T17:54:11;25.58;37.30
66582;SHT31;53438;48.898;2.308;2023-06-05T17:56:36;25.55;37.15
66582;SHT31;53438;48.898;2.308;2023-06-05T17:59:02;25.37;37.23
66582;SHT31;53438;48.898;2.308;2023-06-05T18:01:28;25.44;37.27
66582;SHT31;53438;48.898;2.308;2023-06-05T18:03:55;25.23;37.35
66582;SHT31;53438;48.898;2.308;2023-06-05T18:06:20;25.19;37.49
66582;SHT31;53438;48.898;2.308;2023-06-05T18:08:46;25.17;37.39
66582;SHT31;53438;48.898;2.308;2023-06-05T18:11:11;25.23;37.26
66582;SHT31;53438;48.898;2.308;2023-06-05T18:13:37;25.06;37.58
66582;SHT31;53438;48.898;2.308;2023-06-05T18:16:03;24.93;37.84
66582;SHT31;53438;48.898;2.308;2023-06-05T18:18:29;24.93;37.95
66582;SHT31;53438;48.898;2.308;2023-06-05T18:20:54;25.02;37.82
66582;SHT31;53438;48.898;2.308;2023-06-05T18:23:19;24.96;38.04
66582;SHT31;53438;48.898;2.308;2023-06-05T18:25:45;25.03;38.17
66582;SHT31;53438;48.898;2.308;2023-06-05T18:28:10;25.02;37.94
66582;SHT31;53438;48.898;2.308;2023-06-05T18:30:35;24.90;38.17
66582;SHT31;53438;48.898;2.308;2023-06-05T18:33:01;24.97;38.06
66582;SHT31;53438;48.898;2.308;2023-06-05T18:35:26;24.84;38.21
66582;SHT31;53438;48.898;2.308;2023-06-05T18:37:51;24.75;38.56
66582;SHT31;53438;48.898;2.308;2023-06-05T18:40:17;24.80;38.51
66582;SHT31;53438;48.898;2.308;2023-06-05T18:42:42;24.79;38.53
66582;SHT31;53438;48.898;2.308;2023-06-05T18:45:08;24.65;38.69